Martin State Airport Baltimore US
ICAO: KMTN
IATA: MTN
Category: Medium
Scheduled Services: No

Elevation: 21 ft
TransAlt. 18000 ft.

Airport Communications:
POTOMAC APP/DEP:119
ATIS:124.925
AWOS 3:124.925
POTOMAC CLNC DEL:121.8
CTAF:121.3
GND:121.8
135 AG COMD POST:38.59
175 FG COMD POST:34.72
TWR:121.3
UNICOM:122.95

KMTN Zoom In..

Runways:

(A) RW 15 length 6997 ft width 180 ft
LOC 110.70 / hdg 146

(B) RW 33 length 6997 ft width 180 ft
LOC 110.70 / hdg 326

Location; KMTN
Day. 23 / Time. 07.15 Zulu
* Altimeter: 29.89
* Temperature: 25° c. 77°f.
* Wind from: 090° Speed 06 kn with Gusts up to 14 kn.
Dewpoint: 25° c.
Visibility: 7 Statute Miles.
Clouds: Scattered 1500 ft.
Clouds: Broken 2200 ft.
Clouds: Overcast 3100 ft.

KMTN 230715Z AUTO 09006G14KT 7SM SCT015 BKN022 OVC031 25/25 A2989 RMK AO2 LTG DSNT N AND NW


Wind From 090°
Speed 06 kn.

 
 
jpsmedia.com for Web Design worldairports.se 2018   terms of use